Seaforth, Canada
Current Conditions -  °F | °C
As of 9:00 PM on Tuesday 21 Oct 2014 (Local Time) from CYXU Reporting Station
Overcast Overcast  
Wind Chill: 39°   Ceiling: 1400
Heat Index: 45°   Visibility: 15mi
Dew Point: 41°   Wind: 12mph
Humidity: 87%   Direction: 10°N
Pressure: 30.11"   Gusts: 20mph
Location:  43.55°N, 81.38°W
Report Text: CYXU 220100Z 01010G17KT 15SM OVC014 07/05 A3011 RMK SC8 SLP203
Loading
Personal Weather Stations






























Interactive Weather Map
Tropical Storm Tracking
New forecast layout! Learn more

10-Day Weather Forecast

Advertisements
Track Severe Weather on mobile